WetterOnline ( http://www.wetteronline.de )

Wetter aktuell Bonn

Aktuelles Wetter: Roleber (162m)

6-stündlich | Neueste Meldungen
Ortszeit Temperatur Wetter
Mi, 15.08. 20:00 22.1° C bewölkt
Mi, 15.08. 14:00 22.5° C bedeckt
Mi, 15.08. 8:00 17.3° C bedeckt
Mi, 15.08. 2:00 17.3° C bedeckt
Di, 14.08. 20:00 18.6° C Sprühregen
Di, 14.08. 14:00 20.7° C bewölkt
Di, 14.08. 8:00 17.4° C bedeckt
Di, 14.08. 2:00 16.7° C bewölkt
Ortszeit Temperatur Wetter
Do, 16.08. 0:30 17.9° C wolkenlos
Do, 16.08. 0:10 18.3° C fast wolkenlos
Do, 16.08. 0:00 18.2° C fast wolkenlos
Mi, 15.08. 23:50 18.2° C fast wolkenlos
Mi, 15.08. 23:40 18.1° C leicht bewölkt
Mi, 15.08. 23:30 17.6° C wolkig
Mi, 15.08. 23:00 17.9° C wolkig
Mi, 15.08. 22:30 18.5° C wolkig
Mi, 15.08. 22:00 19.0° C bedeckt
Mi, 15.08. 21:30 20.1° C bedeckt
Ortszeit Relative Feuchte Sichtweite
Mi, 15.08. 20:00 58% 50 km
Mi, 15.08. 14:00 55% 50 km
Mi, 15.08. 8:00 76% 24 km
Mi, 15.08. 2:00 78% 19 km
Di, 14.08. 20:00 82% 10 km
Di, 14.08. 14:00 67% 23 km
Di, 14.08. 8:00 79% 29 km
Di, 14.08. 2:00 83% 35 km
Ortszeit Relative Feuchte Sichtweite
Do, 16.08. 0:30 75% 40 km
Do, 16.08. 0:10 73% -
Do, 16.08. 0:00 74% 40 km
Mi, 15.08. 23:50 74% -
Mi, 15.08. 23:40 72% -
Mi, 15.08. 23:30 75% 35 km
Mi, 15.08. 23:00 74% 35 km
Mi, 15.08. 22:30 72% 40 km
Mi, 15.08. 22:00 76% 30 km
Mi, 15.08. 21:30 67% 50 km
Ortszeit Niederschlagsmenge Niederschlagsart
Mi, 15.08. 20:00 0.0 l/m2 in 12 Std. -
Mi, 15.08. 14:00 0.0 l/m2 in 6 Std. -
Mi, 15.08. 8:00 0.1 l/m2 in 12 Std. -
Mi, 15.08. 2:00 0.1 l/m2 in 6 Std. Regen
Di, 14.08. 20:00 0.5 l/m2 in 12 Std. Regen
Di, 14.08. 14:00 0.5 l/m2 in 6 Std. Regen
Di, 14.08. 8:00 0.0 l/m2 in 12 Std. -
Di, 14.08. 2:00 0.0 l/m2 in 6 Std. -
Ortszeit Niederschlagsmenge Niederschlagsart
Do, 16.08. 0:30 0.0 l/m2 in 1 Std. -
Do, 16.08. 0:10 keine Meldung -
Do, 16.08. 0:00 0.0 l/m2 in 1 Std. -
Mi, 15.08. 23:50 keine Meldung -
Mi, 15.08. 23:40 keine Meldung -
Mi, 15.08. 23:30 0.0 l/m2 in 1 Std. -
Mi, 15.08. 23:00 0.0 l/m2 in 1 Std. -
Mi, 15.08. 22:30 0.0 l/m2 in 1 Std. -
Mi, 15.08. 22:00 0.0 l/m2 in 1 Std. -
Mi, 15.08. 21:30 0.0 l/m2 in 1 Std. -
Ortszeit Stärke Spitze Richtung
km/h Bft. km/h Grad Sektor
Mi, 15.08. 20:00 6 1 9 50° NO
Mi, 15.08. 14:00 4 1 18 200° S
Mi, 15.08. 8:00 7 2 15 220° SW
Mi, 15.08. 2:00 4 1 18 290° W
Di, 14.08. 20:00 6 1 44 280° W
Di, 14.08. 14:00 11 2 32 270° W
Di, 14.08. 8:00 7 2 17 230° SW
Di, 14.08. 2:00 11 2 25 210° SW
Ortszeit Stärke Spitze Richtung
km/h Bft. km/h Grad Sektor
Do, 16.08. 0:30 4 1 18 290° W
Do, 16.08. 0:10 7 2 - 230° SW
Do, 16.08. 0:00 6 1 13 260° W
Mi, 15.08. 23:50 6 1 - 260° W
Mi, 15.08. 23:40 7 2 - 220° SW
Mi, 15.08. 23:30 6 1 7 170° S
Mi, 15.08. 23:00 6 1 11 130° SO
Mi, 15.08. 22:30 7 2 11 120° SO
Mi, 15.08. 22:00 6 1 6 120° SO
Mi, 15.08. 21:30 6 1 6 80° O
Ortszeit Untergrenze Bedeckung Gattung
total tief tief mittel hoch
Mi, 15.08. 20:00 1500 m 7/8 7/8 - - -
Mi, 15.08. 14:00 1500 m 8/8 8/8 - - -
Mi, 15.08. 8:00 1380 m 8/8 8/8 - - -
Mi, 15.08. 2:00 960 m 8/8 8/8 - - -
Di, 14.08. 20:00 1230 m 8/8 8/8 - - -
Di, 14.08. 14:00 780 m 7/8 7/8 - - -
Di, 14.08. 8:00 510 m 8/8 8/8 - - -
Di, 14.08. 2:00 630 m 7/8 7/8 - - -
Ortszeit Bedeckungsgrad in Achtel und Wolkenuntergrenze
Do, 16.08. 0:30 keine Wolken
Do, 16.08. 0:10 1(2400m)
Do, 16.08. 0:00 1(10500m)
Mi, 15.08. 23:50 1(10500m)
Mi, 15.08. 23:40 3(10500m)
Mi, 15.08. 23:30 8(10500m) 6(10500m)
Mi, 15.08. 23:00 8(10500m)
Mi, 15.08. 22:30 3(1500m) 7(10500m) 9
Mi, 15.08. 22:00 8(1500m)
Mi, 15.08. 21:30 8(1500m)
Ortszeit Luftdruck NN (hPa) Tendenz (hPa in 3 Std.)
Mi, 15.08. 20:00 1019 - 0,6
Mi, 15.08. 14:00 1020 - 0,1
Mi, 15.08. 8:00 1020 + 0,8
Mi, 15.08. 2:00 1019 + 0,8
Di, 14.08. 20:00 1017 + 1,1
Di, 14.08. 14:00 1015 + 0,8
Di, 14.08. 8:00 1013 + 1,3
Di, 14.08. 2:00 1011 + 1,3
Ortszeit Luftdruck NN (hPa) Tendenz (hPa in 3 Std.)
Do, 16.08. 0:30 1019 0,0
Do, 16.08. 0:10 1019 keine Meldung
Do, 16.08. 0:00 1019 + 0,1
Mi, 15.08. 23:50 1019 keine Meldung
Mi, 15.08. 23:40 1019 keine Meldung
Mi, 15.08. 23:30 1019 - 0,3
Mi, 15.08. 23:00 1019 - 0,1
Mi, 15.08. 22:30 1019 - 0,1
Mi, 15.08. 22:00 1019 - 0,2
Mi, 15.08. 21:30 1019 - 0,2
Ortszeit Schneehöhe (cm)
Mi, 15.08. 20:00 -
Mi, 15.08. 14:00 -
Mi, 15.08. 8:00 -
Mi, 15.08. 2:00 -
Di, 14.08. 20:00 -
Di, 14.08. 14:00 -
Di, 14.08. 8:00 -
Di, 14.08. 2:00 -
Ortszeit Schneehöhe (cm)
Do, 16.08. 0:30 -
Do, 16.08. 0:10 -
Do, 16.08. 0:00 -
Mi, 15.08. 23:50 -
Mi, 15.08. 23:40 -
Mi, 15.08. 23:30 -
Mi, 15.08. 23:00 -
Mi, 15.08. 22:30 -
Mi, 15.08. 22:00 -
Mi, 15.08. 21:30 -
Link zu dieser Seite / Seite empfehlen

Das Wetter in ...